createdAt,value
2023-06-10T00:00:53.509Z,157.42
2023-06-10T00:01:53.523Z,157.00
2023-06-10T00:02:53.598Z,159.68
2023-06-10T00:03:53.690Z,156.48
2023-06-10T00:04:53.534Z,157.75
2023-06-10T00:05:53.512Z,154.34
2023-06-10T00:06:53.457Z,157.16
2023-06-10T00:07:53.451Z,158.08
2023-06-10T00:08:53.604Z,157.24
2023-06-10T00:09:53.434Z,157.96
2023-06-10T00:10:53.482Z,155.41
2023-06-10T00:11:53.447Z,153.02
2023-06-10T00:12:53.449Z,155.20
2023-06-10T00:13:53.393Z,148.55
2023-06-10T00:14:53.410Z,153.48
2023-06-10T00:15:53.443Z,153.82
2023-06-10T00:16:53.419Z,154.77
2023-06-10T00:17:53.465Z,151.91
2023-06-10T00:18:53.347Z,148.70
2023-06-10T00:19:53.399Z,149.31
2023-06-10T00:20:53.384Z,150.47
2023-06-10T00:21:53.346Z,152.40
2023-06-10T00:22:53.369Z,151.13
2023-06-10T00:23:54.144Z,149.70
2023-06-10T00:24:53.364Z,152.44
2023-06-10T00:25:53.330Z,150.81
2023-06-10T00:26:53.325Z,148.59
2023-06-10T00:27:53.336Z,150.26
2023-06-10T00:28:53.294Z,147.22
2023-06-10T00:29:53.298Z,144.73
2023-06-10T00:30:53.347Z,146.47
2023-06-10T00:31:53.305Z,150.94
2023-06-10T00:32:53.349Z,147.11
2023-06-10T00:33:53.261Z,147.54
2023-06-10T00:34:53.276Z,146.40
2023-06-10T00:35:53.417Z,145.02
2023-06-10T00:36:53.258Z,143.60
2023-06-10T00:37:53.267Z,141.94
2023-06-10T00:38:53.270Z,141.22
2023-06-10T00:39:53.219Z,144.15
2023-06-10T00:40:53.230Z,143.86
2023-06-10T00:41:53.216Z,139.84
2023-06-10T00:42:53.214Z,141.84
2023-06-10T00:43:53.232Z,142.52
2023-06-10T00:44:53.215Z,135.69
2023-06-10T00:45:53.320Z,140.59
2023-06-10T00:46:53.204Z,134.55
2023-06-10T00:47:53.210Z,137.24
2023-06-10T00:48:53.187Z,133.23
2023-06-10T00:49:53.166Z,138.17
2023-06-10T00:50:53.177Z,132.23
2023-06-10T00:51:53.132Z,134.03
2023-06-10T00:52:55.678Z,133.37
2023-06-10T00:53:53.403Z,136.70
2023-06-10T00:54:53.381Z,139.66
2023-06-10T00:55:53.445Z,136.06
2023-06-10T00:56:53.376Z,139.08
2023-06-10T00:57:53.382Z,138.88
2023-06-10T00:58:53.397Z,137.10
2023-06-10T00:59:53.404Z,138.61
2023-06-10T01:00:53.418Z,134.68
2023-06-10T01:01:53.451Z,134.67
2023-06-10T01:02:53.619Z,136.53
2023-06-10T01:03:53.432Z,135.50
2023-06-10T01:04:53.493Z,134.04
2023-06-10T01:05:53.405Z,132.29
2023-06-10T01:06:53.425Z,126.46
2023-06-10T01:07:53.385Z,135.20
2023-06-10T01:08:53.466Z,132.54
2023-06-10T01:09:53.394Z,129.43
2023-06-10T01:10:53.425Z,130.69
2023-06-10T01:11:53.411Z,128.68
2023-06-10T01:12:53.423Z,129.66
2023-06-10T01:13:53.449Z,130.72
2023-06-10T01:14:53.423Z,126.57
2023-06-10T01:15:53.446Z,122.80
2023-06-10T01:16:53.482Z,127.98
2023-06-10T01:17:53.511Z,126.55
2023-06-10T01:18:53.600Z,124.29
2023-06-10T01:19:53.518Z,125.82
2023-06-10T01:20:53.480Z,126.48
2023-06-10T01:21:53.498Z,124.04
2023-06-10T01:22:53.515Z,125.42
2023-06-10T01:23:53.537Z,119.15
2023-06-10T01:24:53.543Z,123.03
2023-06-10T01:25:53.510Z,122.66
2023-06-10T01:26:53.559Z,120.34
2023-06-10T01:27:53.569Z,122.81
2023-06-10T01:28:53.547Z,122.61
2023-06-10T01:29:53.580Z,120.25
2023-06-10T01:30:53.654Z,119.80
2023-06-10T01:31:53.633Z,121.45
2023-06-10T01:32:53.689Z,123.78
2023-06-10T01:33:53.649Z,121.88
2023-06-10T01:34:53.635Z,120.37
2023-06-10T01:35:53.676Z,121.77
2023-06-10T01:36:53.657Z,116.33
2023-06-10T01:37:53.669Z,120.50
2023-06-10T01:38:53.694Z,119.58
2023-06-10T01:39:53.670Z,116.65
2023-06-10T01:40:53.706Z,116.96
2023-06-10T01:41:53.733Z,117.35
2023-06-10T01:42:53.766Z,117.38
2023-06-10T01:43:53.757Z,120.59
2023-06-10T01:44:53.786Z,116.82
2023-06-10T01:45:53.811Z,116.11
2023-06-10T01:46:53.848Z,118.85
2023-06-10T01:47:53.941Z,117.15
2023-06-10T01:48:53.852Z,115.97
2023-06-10T01:49:53.868Z,120.61
2023-06-10T01:50:53.855Z,116.99
2023-06-10T01:51:53.997Z,116.09
2023-06-10T01:52:53.907Z,119.98
2023-06-10T01:53:53.931Z,112.41
2023-06-10T01:54:53.996Z,115.78
2023-06-10T01:55:53.940Z,117.39
2023-06-10T01:56:53.994Z,117.97
2023-06-10T01:57:53.973Z,116.33
2023-06-10T01:58:54.013Z,115.30
2023-06-10T01:59:54.081Z,112.62
2023-06-10T02:00:54.211Z,117.93
2023-06-10T02:01:54.093Z,111.46
2023-06-10T02:02:54.127Z,116.62
2023-06-10T02:03:54.144Z,115.19
2023-06-10T02:04:54.217Z,121.71
2023-06-10T02:05:54.102Z,110.45
2023-06-10T02:06:54.169Z,115.01
2023-06-10T02:07:54.212Z,115.15
2023-06-10T02:08:54.180Z,112.16
2023-06-10T02:09:54.247Z,112.93
2023-06-10T02:10:54.244Z,113.18
2023-06-10T02:11:54.256Z,113.77
2023-06-10T02:12:54.320Z,110.66
2023-06-10T02:13:54.321Z,113.07
2023-06-10T02:14:54.375Z,114.42
2023-06-10T02:15:54.368Z,112.07
2023-06-10T02:16:54.474Z,109.39
2023-06-10T02:17:54.427Z,107.48
2023-06-10T02:18:54.386Z,112.87
2023-06-10T02:19:54.417Z,114.35
2023-06-10T02:20:54.571Z,109.36
2023-06-10T02:21:54.486Z,110.81
2023-06-10T02:22:54.516Z,112.01
2023-06-10T02:23:54.666Z,113.26
2023-06-10T02:24:54.544Z,111.97
2023-06-10T02:25:54.558Z,109.60
2023-06-10T02:26:54.545Z,111.93
2023-06-10T02:27:54.643Z,111.38
2023-06-10T02:28:54.637Z,111.13
2023-06-10T02:29:54.644Z,111.07
2023-06-10T02:30:54.682Z,109.94
2023-06-10T02:31:54.704Z,112.29
2023-06-10T02:32:54.784Z,114.38
2023-06-10T02:33:54.788Z,112.09
2023-06-10T02:34:54.771Z,109.36
2023-06-10T02:35:54.821Z,111.64
2023-06-10T02:36:55.192Z,110.61
2023-06-10T02:37:55.202Z,110.14
2023-06-10T02:38:54.845Z,109.86
2023-06-10T02:39:54.851Z,109.06
2023-06-10T02:40:54.864Z,110.30
2023-06-10T02:41:54.931Z,110.34
2023-06-10T02:42:54.930Z,112.95
2023-06-10T02:43:54.937Z,108.65
2023-06-10T02:44:54.930Z,111.59
2023-06-10T02:45:55.098Z,112.97
2023-06-10T02:46:55.000Z,106.39
2023-06-10T02:47:55.098Z,109.07
2023-06-10T02:48:55.077Z,112.22
2023-06-10T02:49:55.043Z,110.78
2023-06-10T02:50:55.105Z,111.25
2023-06-10T02:51:55.137Z,113.46
2023-06-10T02:52:55.201Z,109.16
2023-06-10T02:53:55.150Z,109.01
2023-06-10T02:54:55.290Z,110.07
2023-06-10T02:55:55.233Z,109.09
2023-06-10T02:56:55.240Z,112.46
2023-06-10T02:57:55.328Z,109.75
2023-06-10T02:58:55.263Z,109.69
2023-06-10T02:59:55.302Z,109.19
2023-06-10T03:00:55.363Z,112.42
2023-06-10T03:01:55.471Z,107.90
2023-06-10T03:02:55.461Z,105.11
2023-06-10T03:03:55.498Z,109.07
2023-06-10T03:04:55.491Z,108.26
2023-06-10T03:05:55.495Z,109.14
2023-06-10T03:06:55.551Z,107.55
2023-06-10T03:07:55.627Z,107.67
2023-06-10T03:08:55.627Z,104.20
2023-06-10T03:09:55.653Z,108.14
2023-06-10T03:10:55.665Z,108.68
2023-06-10T03:11:55.709Z,107.62
2023-06-10T03:12:55.726Z,111.08
2023-06-10T03:13:55.769Z,108.67
2023-06-10T03:14:55.806Z,111.15
2023-06-10T03:15:55.862Z,109.60
2023-06-10T03:16:55.838Z,108.54
2023-06-10T03:17:55.909Z,106.18
2023-06-10T03:18:56.007Z,109.11
2023-06-10T03:19:55.954Z,106.17
2023-06-10T03:20:56.030Z,108.22
2023-06-10T03:21:56.085Z,108.75
2023-06-10T03:22:56.062Z,107.34
2023-06-10T03:23:56.183Z,106.95
2023-06-10T03:24:56.132Z,109.75
2023-06-10T03:25:56.162Z,107.83
2023-06-10T03:26:56.182Z,104.48
2023-06-10T03:27:56.262Z,108.57
2023-06-10T03:28:56.271Z,105.96
2023-06-10T03:29:56.296Z,107.40
2023-06-10T03:30:56.346Z,107.67
2023-06-10T03:31:56.390Z,107.97
2023-06-10T03:32:56.466Z,104.25
2023-06-10T03:33:56.459Z,106.95
2023-06-10T03:34:56.452Z,108.04
2023-06-10T03:35:56.497Z,109.96
2023-06-10T03:36:56.579Z,104.74
2023-06-10T03:37:56.589Z,105.26
2023-06-10T03:38:56.570Z,108.96
2023-06-10T03:39:56.665Z,105.70
2023-06-10T03:40:56.662Z,108.21
2023-06-10T03:41:56.774Z,110.31
2023-06-10T03:42:56.744Z,103.34
2023-06-10T03:43:56.786Z,107.92
2023-06-10T03:44:56.784Z,109.99
2023-06-10T03:45:56.919Z,109.42
2023-06-10T03:46:56.861Z,110.21
2023-06-10T03:47:57.023Z,109.64
2023-06-10T03:48:56.928Z,107.28
2023-06-10T03:49:56.989Z,107.04
2023-06-10T03:50:57.044Z,109.85
2023-06-10T03:51:57.037Z,108.42
2023-06-10T03:52:57.236Z,109.46
2023-06-10T03:53:57.436Z,110.74
2023-06-10T03:54:57.277Z,107.34
2023-06-10T03:55:57.071Z,106.10
2023-06-10T03:56:57.099Z,107.08
2023-06-10T03:57:57.133Z,110.11
2023-06-10T03:58:57.168Z,104.83
2023-06-10T03:59:57.155Z,110.00
2023-06-10T04:00:57.210Z,110.15
2023-06-10T04:01:57.318Z,108.47
2023-06-10T04:02:57.342Z,106.38
2023-06-10T04:03:57.290Z,104.40
2023-06-10T04:04:57.347Z,111.07
2023-06-10T04:05:57.396Z,103.41
2023-06-10T04:06:57.466Z,110.22
2023-06-10T04:07:57.457Z,110.62
2023-06-10T04:08:57.522Z,109.06
2023-06-10T04:09:57.515Z,107.75
2023-06-10T04:10:57.609Z,107.01
2023-06-10T04:11:57.597Z,108.14
2023-06-10T04:12:57.667Z,109.96
2023-06-10T04:13:57.651Z,109.15
2023-06-10T04:14:57.720Z,107.54
2023-06-10T04:15:57.768Z,108.79
2023-06-10T04:16:57.810Z,108.93
2023-06-10T04:17:57.905Z,110.86
2023-06-10T04:18:57.883Z,109.30
2023-06-10T04:19:57.891Z,110.77
2023-06-10T04:20:57.920Z,110.15
2023-06-10T04:21:57.975Z,109.86
2023-06-10T04:22:58.019Z,108.12
2023-06-10T04:23:58.087Z,111.26
2023-06-10T04:24:58.082Z,109.28
2023-06-10T04:25:58.146Z,111.35
2023-06-10T04:26:58.194Z,111.60
2023-06-10T04:27:58.205Z,113.46
2023-06-10T04:28:58.263Z,112.62
2023-06-10T04:29:58.336Z,107.64
2023-06-10T04:30:58.335Z,111.07
2023-06-10T04:31:58.398Z,110.97
2023-06-10T04:32:58.490Z,112.77
2023-06-10T04:33:58.474Z,112.57
2023-06-10T04:34:58.503Z,110.60
2023-06-10T04:35:58.532Z,109.61
2023-06-10T04:36:58.572Z,112.33
2023-06-10T04:37:58.625Z,112.05
2023-06-10T04:38:58.670Z,110.31
2023-06-10T04:39:58.700Z,111.40
2023-06-10T04:40:58.752Z,110.27
2023-06-10T04:41:58.778Z,112.02
2023-06-10T04:42:58.884Z,109.19
2023-06-10T04:43:58.882Z,111.61
2023-06-10T04:44:58.883Z,108.25
2023-06-10T04:45:58.961Z,114.55
2023-06-10T04:46:59.031Z,112.66
2023-06-10T04:47:59.159Z,113.24
2023-06-10T04:48:59.044Z,116.81
2023-06-10T04:49:59.118Z,118.36
2023-06-10T04:50:59.196Z,115.75
2023-06-10T04:51:59.237Z,116.75
2023-06-10T04:52:59.214Z,114.00
2023-06-10T04:53:59.273Z,121.48
2023-06-10T04:54:59.329Z,121.08
2023-06-10T04:55:59.346Z,114.14
2023-06-10T04:56:59.391Z,119.00
2023-06-10T04:57:59.441Z,117.54
2023-06-10T04:58:59.457Z,118.96
2023-06-10T04:59:59.518Z,116.96
2023-06-10T05:00:59.522Z,121.46
2023-06-10T05:01:59.632Z,119.07
2023-06-10T05:02:59.664Z,115.70
2023-06-10T05:03:59.649Z,120.03
2023-06-10T05:04:59.706Z,118.87
2023-06-10T05:05:59.750Z,122.80
2023-06-10T05:06:59.814Z,121.78
2023-06-10T05:07:59.833Z,113.21
2023-06-10T05:08:59.876Z,122.73
2023-06-10T05:09:59.879Z,121.86
2023-06-10T05:10:59.883Z,122.04
2023-06-10T05:11:59.955Z,118.81
2023-06-10T05:13:00.002Z,124.56
2023-06-10T05:14:00.084Z,123.22
2023-06-10T05:15:00.088Z,125.06
2023-06-10T05:16:00.115Z,125.20
2023-06-10T05:17:00.177Z,126.07
2023-06-10T05:18:00.201Z,124.26
2023-06-10T05:19:00.210Z,125.50
2023-06-10T05:20:00.277Z,121.38
2023-06-10T05:21:00.260Z,128.82
2023-06-10T05:22:00.273Z,128.75
2023-06-10T05:23:00.330Z,126.13
2023-06-10T05:24:00.412Z,124.94
2023-06-10T05:25:00.448Z,126.53
2023-06-10T05:26:00.435Z,124.65
2023-06-10T05:27:00.489Z,128.50
2023-06-10T05:28:00.523Z,130.28
2023-06-10T05:29:00.594Z,129.21
2023-06-10T05:30:00.589Z,129.73
2023-06-10T05:31:00.641Z,128.40
2023-06-10T05:32:00.747Z,129.81
2023-06-10T05:33:00.737Z,130.10
2023-06-10T05:34:00.729Z,128.23
2023-06-10T05:35:00.781Z,133.03
2023-06-10T05:36:00.794Z,134.33
2023-06-10T05:37:00.794Z,129.08
2023-06-10T05:38:03.517Z,130.45
2023-06-10T05:39:00.857Z,135.73
2023-06-10T05:40:00.877Z,134.27
2023-06-10T05:41:00.804Z,129.05
2023-06-10T05:42:00.826Z,132.71
2023-06-10T05:43:00.883Z,135.91
2023-06-10T05:44:00.835Z,133.69
2023-06-10T05:45:00.780Z,134.61
2023-06-10T05:46:00.810Z,137.02
2023-06-10T05:47:00.791Z,137.80
2023-06-10T05:48:00.820Z,138.03
2023-06-10T05:49:00.817Z,135.58
2023-06-10T05:50:00.785Z,137.27
2023-06-10T05:51:00.768Z,135.91
2023-06-10T05:52:00.757Z,139.74
2023-06-10T05:53:00.756Z,138.35
2023-06-10T05:54:00.774Z,136.62
2023-06-10T05:55:00.738Z,137.38
2023-06-10T05:56:00.786Z,135.72
2023-06-10T05:57:00.720Z,132.13
2023-06-10T05:58:00.741Z,133.24
2023-06-10T05:59:00.713Z,135.27
2023-06-10T06:00:00.707Z,133.09
2023-06-10T06:01:00.717Z,133.93
2023-06-10T06:02:00.788Z,134.57
2023-06-10T06:03:00.812Z,130.83
2023-06-10T06:04:00.698Z,130.23
2023-06-10T06:05:00.736Z,133.32
2023-06-10T06:06:00.666Z,132.22
2023-06-10T06:07:00.682Z,134.59
2023-06-10T06:08:00.640Z,134.13
2023-06-10T06:09:00.660Z,130.82
2023-06-10T06:10:00.601Z,130.77
2023-06-10T06:11:00.635Z,132.01
2023-06-10T06:12:00.776Z,129.12
2023-06-10T06:13:00.614Z,126.84
2023-06-10T06:14:00.591Z,129.66
2023-06-10T06:15:00.575Z,128.46
2023-06-10T06:16:00.597Z,127.43
2023-06-10T06:17:00.613Z,129.84
2023-06-10T06:18:00.615Z,125.77
2023-06-10T06:19:00.579Z,127.04
2023-06-10T06:20:00.553Z,128.23
2023-06-10T06:21:00.552Z,123.30
2023-06-10T06:22:00.582Z,121.07
2023-06-10T06:23:00.559Z,118.52
2023-06-10T06:24:00.734Z,120.56
2023-06-10T06:25:00.706Z,122.09
2023-06-10T06:26:00.531Z,124.48
2023-06-10T06:27:00.526Z,118.78
2023-06-10T06:28:00.518Z,123.94
2023-06-10T06:29:00.524Z,116.02
2023-06-10T06:30:00.499Z,122.23
2023-06-10T06:31:00.585Z,121.80
2023-06-10T06:32:00.578Z,116.09
2023-06-10T06:33:00.561Z,122.14
2023-06-10T06:34:00.488Z,122.87
2023-06-10T06:35:00.463Z,119.45
2023-06-10T06:36:00.447Z,118.07
2023-06-10T06:37:00.468Z,120.06
2023-06-10T06:38:00.430Z,119.79
2023-06-10T06:39:00.484Z,115.56
2023-06-10T06:40:03.968Z,117.75
2023-06-10T06:41:00.458Z,118.04
2023-06-10T06:42:00.408Z,118.59
2023-06-10T06:43:00.397Z,118.06
2023-06-10T06:44:00.481Z,119.04
2023-06-10T06:45:00.427Z,118.02
2023-06-10T06:46:00.401Z,122.81
2023-06-10T06:47:00.482Z,116.66
2023-06-10T06:48:00.440Z,118.75
2023-06-10T06:49:00.431Z,114.03
2023-06-10T06:50:00.408Z,118.46
2023-06-10T06:51:00.356Z,121.43
2023-06-10T06:52:00.373Z,116.78
2023-06-10T06:53:00.388Z,122.34
2023-06-10T06:54:00.372Z,116.46
2023-06-10T06:55:00.330Z,115.63
2023-06-10T06:56:00.343Z,119.27
2023-06-10T06:57:00.331Z,120.35
2023-06-10T06:58:00.316Z,115.58
2023-06-10T06:59:00.320Z,119.78
2023-06-10T07:00:00.296Z,116.72
2023-06-10T07:01:00.342Z,115.93
2023-06-10T07:02:00.289Z,117.87
2023-06-10T07:03:00.387Z,119.47
2023-06-10T07:04:00.305Z,113.54
2023-06-10T07:05:00.362Z,118.50
2023-06-10T07:06:00.243Z,120.52
2023-06-10T07:07:00.315Z,115.49
2023-06-10T07:08:00.271Z,115.50
2023-06-10T07:09:00.266Z,119.02
2023-06-10T07:10:00.308Z,114.34
2023-06-10T07:11:00.237Z,113.61
2023-06-10T07:12:00.237Z,116.29
2023-06-10T07:13:00.253Z,114.95
2023-06-10T07:14:00.221Z,119.86
2023-06-10T07:15:00.206Z,120.69
2023-06-10T07:16:00.197Z,115.31
2023-06-10T07:17:00.354Z,121.96
2023-06-10T07:18:00.272Z,119.08
2023-06-10T07:19:00.185Z,118.56
2023-06-10T07:20:00.213Z,118.81
2023-06-10T07:21:00.163Z,118.66
2023-06-10T07:22:00.200Z,113.67
2023-06-10T07:23:00.172Z,119.02
2023-06-10T07:24:00.232Z,118.04
2023-06-10T07:25:00.242Z,118.67
2023-06-10T07:26:00.232Z,120.18
2023-06-10T07:27:00.231Z,117.88
2023-06-10T07:28:00.273Z,115.00
2023-06-10T07:29:00.259Z,121.37
2023-06-10T07:30:00.301Z,114.65
2023-06-10T07:31:00.398Z,118.35
2023-06-10T07:32:00.312Z,119.48
2023-06-10T07:33:00.360Z,115.57
2023-06-10T07:34:00.382Z,119.63
2023-06-10T07:35:00.399Z,116.50
2023-06-10T07:36:00.430Z,117.30
2023-06-10T07:37:00.444Z,116.34
2023-06-10T07:38:00.437Z,116.79
2023-06-10T07:39:00.471Z,117.17
2023-06-10T07:40:00.491Z,118.77
2023-06-10T07:41:00.482Z,117.46
2023-06-10T07:42:00.520Z,117.78
2023-06-10T07:43:00.569Z,112.77
2023-06-10T07:44:00.520Z,115.65
2023-06-10T07:45:00.543Z,117.94
2023-06-10T07:46:00.722Z,120.03
2023-06-10T07:47:00.647Z,115.51
2023-06-10T07:48:00.673Z,116.16
2023-06-10T07:49:00.609Z,119.55
2023-06-10T07:50:00.679Z,116.18
2023-06-10T07:51:00.665Z,117.79
2023-06-10T07:52:00.747Z,119.59
2023-06-10T07:53:00.781Z,118.55
2023-06-10T07:54:00.714Z,114.84
2023-06-10T07:55:00.745Z,114.04
2023-06-10T07:56:00.713Z,120.31
2023-06-10T07:57:00.757Z,119.29
2023-06-10T07:58:00.769Z,117.28
2023-06-10T07:59:00.785Z,118.34
2023-06-10T08:00:00.765Z,117.79
2023-06-10T08:01:00.772Z,114.91
2023-06-10T08:02:00.794Z,116.50
2023-06-10T08:03:00.924Z,116.31
2023-06-10T08:04:00.995Z,119.29
2023-06-10T08:05:00.876Z,118.33
2023-06-10T08:06:00.832Z,117.01
2023-06-10T08:07:00.862Z,115.52
2023-06-10T08:08:03.819Z,116.14
2023-06-10T08:09:00.844Z,119.69
2023-06-10T08:10:00.843Z,118.14
2023-06-10T08:11:00.853Z,119.25
2023-06-10T08:12:00.815Z,119.89
2023-06-10T08:13:00.885Z,118.81
2023-06-10T08:14:00.812Z,118.11
2023-06-10T08:15:00.795Z,117.46
2023-06-10T08:16:00.833Z,119.75
2023-06-10T08:17:01.013Z,116.28
2023-06-10T08:18:00.823Z,116.21
2023-06-10T08:19:00.797Z,116.61
2023-06-10T08:20:00.779Z,114.99
2023-06-10T08:21:00.797Z,117.88
2023-06-10T08:22:00.755Z,118.09
2023-06-10T08:23:00.718Z,119.24
2023-06-10T08:24:00.783Z,116.96
2023-06-10T08:25:00.737Z,117.81
2023-06-10T08:26:00.703Z,116.83
2023-06-10T08:27:00.707Z,117.91
2023-06-10T08:28:00.716Z,118.77
2023-06-10T08:29:00.736Z,114.49
2023-06-10T08:30:00.717Z,114.62
2023-06-10T08:31:00.709Z,117.00
2023-06-10T08:32:00.723Z,113.48
2023-06-10T08:33:00.836Z,116.75
2023-06-10T08:34:00.654Z,117.53
2023-06-10T08:35:00.656Z,114.89
2023-06-10T08:36:00.664Z,115.79
2023-06-10T08:37:00.649Z,112.71
2023-06-10T08:38:00.615Z,115.28
2023-06-10T08:39:00.655Z,111.50
2023-06-10T08:40:00.662Z,115.89
2023-06-10T08:41:00.640Z,113.29
2023-06-10T08:42:00.625Z,112.96
2023-06-10T08:43:00.613Z,109.54
2023-06-10T08:44:00.593Z,115.61
2023-06-10T08:45:03.179Z,113.93
2023-06-10T08:46:00.592Z,114.08
2023-06-10T08:47:00.588Z,114.29
2023-06-10T08:48:00.735Z,113.97
2023-06-10T08:49:00.663Z,112.66
2023-06-10T08:50:00.685Z,113.00
2023-06-10T08:51:00.550Z,117.37
2023-06-10T08:52:00.529Z,112.70
2023-06-10T08:53:00.548Z,116.54
2023-06-10T08:54:00.550Z,112.50
2023-06-10T08:55:00.555Z,112.67
2023-06-10T08:56:00.527Z,114.76
2023-06-10T08:57:00.540Z,113.36
2023-06-10T08:58:00.516Z,111.54
2023-06-10T08:59:00.491Z,113.57
2023-06-10T09:00:00.516Z,113.29
2023-06-10T09:01:00.473Z,115.04
2023-06-10T09:02:00.534Z,112.64
2023-06-10T09:03:04.393Z,108.43
2023-06-10T09:04:00.540Z,108.72
2023-06-10T09:05:00.475Z,109.68
2023-06-10T09:06:00.478Z,110.14
2023-06-10T09:07:00.431Z,109.56
2023-06-10T09:08:00.493Z,111.41
2023-06-10T09:09:03.536Z,110.09
2023-06-10T09:10:00.430Z,110.24
2023-06-10T09:11:00.437Z,110.48
2023-06-10T09:12:00.408Z,111.29
2023-06-10T09:13:00.436Z,108.55
2023-06-10T09:14:00.396Z,113.29
2023-06-10T09:15:03.041Z,105.44
2023-06-10T09:16:00.389Z,105.69
2023-06-10T09:17:00.385Z,106.08
2023-06-10T09:18:00.402Z,107.56
2023-06-10T09:19:00.383Z,110.10
2023-06-10T09:20:00.364Z,105.11
2023-06-10T09:21:00.336Z,112.19
2023-06-10T09:22:00.359Z,107.18
2023-06-10T09:23:00.320Z,109.20
2023-06-10T09:24:00.399Z,106.42
2023-06-10T09:25:00.342Z,108.65
2023-06-10T09:26:00.335Z,109.12
2023-06-10T09:27:00.294Z,106.79
2023-06-10T09:28:00.315Z,107.57
2023-06-10T09:29:00.303Z,106.14
2023-06-10T09:30:00.309Z,109.84
2023-06-10T09:31:00.292Z,107.29
2023-06-10T09:32:00.298Z,111.33
2023-06-10T09:33:00.404Z,106.51
2023-06-10T09:34:00.288Z,111.14
2023-06-10T09:35:00.263Z,109.00
2023-06-10T09:36:00.275Z,106.25
2023-06-10T09:37:00.253Z,105.81
2023-06-10T09:38:00.257Z,107.15
2023-06-10T09:39:00.248Z,106.42
2023-06-10T09:40:00.200Z,110.58
2023-06-10T09:41:00.226Z,108.12
2023-06-10T09:42:00.263Z,106.61
2023-06-10T09:43:00.258Z,107.38
2023-06-10T09:44:00.193Z,105.89
2023-06-10T09:45:00.233Z,102.72
2023-06-10T09:46:00.246Z,106.56
2023-06-10T09:47:00.202Z,107.09
2023-06-10T09:48:00.320Z,103.73
2023-06-10T09:49:00.212Z,104.49
2023-06-10T09:50:00.212Z,108.28
2023-06-10T09:51:00.255Z,103.33
2023-06-10T09:52:00.250Z,105.28
2023-06-10T09:53:00.190Z,102.53
2023-06-10T09:54:00.185Z,102.69
2023-06-10T09:55:00.261Z,100.77
2023-06-10T09:56:00.226Z,100.75
2023-06-10T09:57:00.313Z,104.24
2023-06-10T09:58:00.329Z,101.22
2023-06-10T09:59:00.367Z,101.84
2023-06-10T10:00:00.400Z,98.54
2023-06-10T10:01:00.448Z,99.25
2023-06-10T10:02:00.445Z,101.11
2023-06-10T10:03:00.520Z,96.01
2023-06-10T10:04:00.512Z,98.58
2023-06-10T10:05:00.652Z,95.37
2023-06-10T10:06:00.733Z,98.81
2023-06-10T10:07:00.687Z,98.32
2023-06-10T10:08:00.594Z,98.68
2023-06-10T10:09:00.701Z,98.27
2023-06-10T10:10:00.755Z,98.92
2023-06-10T10:11:00.683Z,97.48
2023-06-10T10:12:00.829Z,102.08
2023-06-10T10:13:00.728Z,97.31
2023-06-10T10:14:00.781Z,97.63
2023-06-10T10:15:00.803Z,97.55
2023-06-10T10:16:00.787Z,95.99
2023-06-10T10:17:00.860Z,96.11
2023-06-10T10:18:00.968Z,94.37
2023-06-10T10:19:00.807Z,96.83
2023-06-10T10:20:00.848Z,97.58
2023-06-10T10:21:00.835Z,95.11
2023-06-10T10:22:00.873Z,97.16
2023-06-10T10:23:00.855Z,98.39
2023-06-10T10:24:00.932Z,95.60
2023-06-10T10:25:00.937Z,92.70
2023-06-10T10:26:00.953Z,98.88
2023-06-10T10:27:00.957Z,97.65
2023-06-10T10:28:01.056Z,99.05
2023-06-10T10:29:01.001Z,99.99
2023-06-10T10:30:01.022Z,96.27
2023-06-10T10:31:00.985Z,97.02
2023-06-10T10:32:01.060Z,98.14
2023-06-10T10:33:01.092Z,97.57
2023-06-10T10:34:01.113Z,97.54
2023-06-10T10:35:01.056Z,95.83
2023-06-10T10:36:01.065Z,99.98
2023-06-10T10:37:01.054Z,97.67
2023-06-10T10:38:01.078Z,97.64
2023-06-10T10:39:01.091Z,97.26
2023-06-10T10:40:01.105Z,99.84
2023-06-10T10:41:01.147Z,97.61
2023-06-10T10:42:01.150Z,99.75
2023-06-10T10:43:01.176Z,95.28
2023-06-10T10:44:01.263Z,96.70
2023-06-10T10:45:01.189Z,99.23
2023-06-10T10:46:01.219Z,96.05
2023-06-10T10:47:01.252Z,99.76
2023-06-10T10:48:01.312Z,96.18
2023-06-10T10:49:01.254Z,100.73
2023-06-10T10:50:01.448Z,99.93
2023-06-10T10:51:01.263Z,99.89
2023-06-10T10:52:01.301Z,99.90
2023-06-10T10:53:01.345Z,97.04
2023-06-10T10:54:01.304Z,99.60
2023-06-10T10:55:01.358Z,99.57
2023-06-10T10:56:01.367Z,100.79
2023-06-10T10:57:01.398Z,99.30
2023-06-10T10:58:01.411Z,101.99
2023-06-10T10:59:01.392Z,98.02
2023-06-10T11:00:01.664Z,98.89
2023-06-10T11:01:01.489Z,100.28
2023-06-10T11:02:01.444Z,100.44
2023-06-10T11:03:03.601Z,101.87
2023-06-10T11:04:01.547Z,102.48
2023-06-10T11:05:01.576Z,101.96
2023-06-10T11:06:01.428Z,100.70
2023-06-10T11:07:01.386Z,97.23
2023-06-10T11:08:01.382Z,101.21
2023-06-10T11:09:04.547Z,101.78
2023-06-10T11:10:01.425Z,101.98
2023-06-10T11:11:01.348Z,102.26
2023-06-10T11:12:01.366Z,103.53
2023-06-10T11:13:01.325Z,98.63
2023-06-10T11:14:01.374Z,100.88
2023-06-10T11:15:01.328Z,99.16
2023-06-10T11:16:01.325Z,104.00
2023-06-10T11:17:01.413Z,100.96
2023-06-10T11:18:01.347Z,101.62
2023-06-10T11:19:01.354Z,102.09
2023-06-10T11:20:01.377Z,100.15
2023-06-10T11:21:01.378Z,102.86
2023-06-10T11:22:01.379Z,101.54
2023-06-10T11:23:01.297Z,101.21
2023-06-10T11:24:01.369Z,100.25
2023-06-10T11:25:01.285Z,101.50
2023-06-10T11:26:01.373Z,98.16
2023-06-10T11:27:01.266Z,98.39
2023-06-10T11:28:01.303Z,99.19
2023-06-10T11:29:01.320Z,101.85
2023-06-10T11:30:01.329Z,98.28
2023-06-10T11:31:01.270Z,99.68
2023-06-10T11:32:01.324Z,101.68
2023-06-10T11:33:01.839Z,97.65
2023-06-10T11:34:01.233Z,98.10
2023-06-10T11:35:01.220Z,101.15
2023-06-10T11:36:01.220Z,101.82
2023-06-10T11:37:01.229Z,99.46
2023-06-10T11:38:01.266Z,101.60
2023-06-10T11:39:01.315Z,99.49
2023-06-10T11:40:01.406Z,99.71
2023-06-10T11:41:01.485Z,97.22
2023-06-10T11:42:01.502Z,100.22
2023-06-10T11:43:01.543Z,100.77
2023-06-10T11:44:01.643Z,102.71
2023-06-10T11:45:01.694Z,98.29
2023-06-10T11:46:01.789Z,101.16
2023-06-10T11:47:01.820Z,98.88
2023-06-10T11:48:02.033Z,100.67
2023-06-10T11:49:01.934Z,100.26
2023-06-10T11:50:01.980Z,101.54
2023-06-10T11:51:02.052Z,101.60
2023-06-10T11:52:02.095Z,101.85
2023-06-10T11:53:02.126Z,102.43
2023-06-10T11:54:02.201Z,100.15
2023-06-10T11:55:02.344Z,99.94
2023-06-10T11:56:02.332Z,102.36
2023-06-10T11:57:02.374Z,102.59
2023-06-10T11:58:02.462Z,102.02
2023-06-10T11:59:02.531Z,101.52
2023-06-10T12:00:02.838Z,103.03
2023-06-10T12:01:02.673Z,103.00
2023-06-10T12:02:02.705Z,106.10
2023-06-10T12:03:02.916Z,100.18
2023-06-10T12:04:02.774Z,102.87
2023-06-10T12:05:02.916Z,101.06
2023-06-10T12:06:02.907Z,99.23
2023-06-10T12:07:02.976Z,101.77
2023-06-10T12:08:03.030Z,102.59
2023-06-10T12:09:18.463Z,105.02
2023-06-10T12:10:15.294Z,105.09
2023-06-10T12:11:04.127Z,105.21
2023-06-10T12:12:03.062Z,105.95
2023-06-10T12:13:03.019Z,106.11
2023-06-10T12:14:03.021Z,104.91
2023-06-10T12:15:03.019Z,105.69
2023-06-10T12:16:03.028Z,105.35
2023-06-10T12:17:03.001Z,105.43
2023-06-10T12:18:03.063Z,105.11
2023-06-10T12:19:02.983Z,102.99
2023-06-10T12:20:03.018Z,101.64
2023-06-10T12:21:02.996Z,103.78
2023-06-10T12:22:02.979Z,99.15
2023-06-10T12:23:03.007Z,102.14
2023-06-10T12:24:03.098Z,101.72
2023-06-10T12:25:02.951Z,102.45
2023-06-10T12:26:02.948Z,100.47
2023-06-10T12:27:02.941Z,102.80
2023-06-10T12:28:02.949Z,102.83
2023-06-10T12:29:02.938Z,99.06
2023-06-10T12:30:02.935Z,100.32
2023-06-10T12:31:07.416Z,100.76